Pagina principale
METAR-TAF:

METAR-TAF

Aeroporti :

Aeroporto di Cervia-Pisignano

Cervia, Italia

latitudine: 44-13N, longitudine: 012-18E, altezza: 6 m

Osservazione

Il bollettino è stato emesso 31 minuti fa, alle 16:55 UTC
Vento 5 kt da ovest
Temperature 22°C
Umidità 53%
Pressione 1015 hPa
Visibilità 10 km o più
nessuna nube inferiore a 1500 m e nessun cumulonembo

METAR: LIPC 131655Z 28005KT CAVOK 22/12 Q1015 RMK SKC VIS MIN 9999 WIND THR11 28005KT WIND THR29 27005KT BLU

Ora: 19:26 (17:26 UTC)

Previsione

Il bollettino è stato emesso 3 ore e 26 minuti fa, alle 14:00 UTC
Previsione valida dal 13 alle 15 UTC al 13 alle 24 UTC
Vento 10 kt da ovest/nord-ovest
Visibilità 10 km o più
Nubi sparse ad un'altezza di 4000 ft
Temporaneamente
dal 13 alle 15 UTC al 13 alle 16 UTC
Poco nuvoloso ad un'altezza di 2500 ft, Cumulonembo.
Nuvoloso ad un'altezza di 3000 ft
temporale, pioggia,

TAF: LIPC 131400Z 1315/1324 30010KT 9999 SCT040 TEMPO 1315/1316 TSRA FEW025CB BKN030

Osservazioni e previsioni meteorologiche di più di 4000 aeroporti (messaggi METAR e TAF).

Le stazioni disponibili sono rappresentate dai dischi gialli e rossi sulla carta.

Puntare il mouse per vedere il nome della stazione.

Clicca sopra per visualizzare le osservazioni e previsioni meteorologiche.

Per cambiare la mappa : fare clic sui pulsanti verdi con una croce nera per ingrandire, il pulsante verde con un trattino per diminuire, o sulla freccia verde per le mappe adiacenti.


METAR-TAF: